Time;durP1;ratioP1;P1;durP2;ratioP2;P2;SDS_P1;SDS_P2;PMS_P1;PMS_P2;Temp;Humidity;BMP_temperature;BMP_pressure;BME280_temperature;BME280_humidity;BME280_pressure;Samples;Min_cycle;Max_cycle;Signal;HPM_P1;HPM_P2
2020/12/09 00:01:50;;;;;;;28.17;12.27;;;5.40;99.90;;;;;;5065031;28;20096;-78
2020/12/09 00:04:17;;;;;;;29.42;11.85;;;5.40;99.90;;;;;;5064768;28;20045;-77
2020/12/09 00:06:43;;;;;;;30.92;13.05;;;5.50;99.90;;;;;;5064665;28;20025;-77
2020/12/09 00:09:10;;;;;;;30.42;12.38;;;5.40;99.90;;;;;;5065884;28;20055;-78
2020/12/09 00:11:36;;;;;;;31.48;12.95;;;5.30;99.90;;;;;;5064673;28;20424;-78
2020/12/09 00:14:02;;;;;;;28.05;12.32;;;5.40;99.90;;;;;;5064426;28;20017;-78
2020/12/09 00:16:29;;;;;;;47.92;14.40;;;5.30;99.90;;;;;;5065950;28;20041;-79
2020/12/09 00:18:54;;;;;;;31.42;12.60;;;5.30;99.90;;;;;;5064751;28;20051;-80
2020/12/09 00:21:22;;;;;;;24.40;12.65;;;5.30;99.90;;;;;;5065975;28;20082;-79
2020/12/09 00:23:49;;;;;;;24.70;12.65;;;5.30;99.90;;;;;;5065874;28;20029;-78
2020/12/09 00:26:23;;;;;;;32.70;12.75;;;5.20;99.90;;;;;;5065726;28;20405;-78
2020/12/09 00:28:49;;;;;;;27.25;12.52;;;5.30;99.90;;;;;;5064608;28;20021;-79
2020/12/09 00:31:21;;;;;;;34.45;13.18;;;5.20;99.90;;;;;;5065625;28;20481;-77
2020/12/09 00:33:46;;;;;;;32.17;13.15;;;5.20;99.90;;;;;;5065767;28;20028;-78
2020/12/09 00:36:16;;;;;;;35.40;13.80;;;5.10;99.90;;;;;;5064078;28;20029;-78
2020/12/09 00:38:46;;;;;;;29.98;13.23;;;5.10;99.90;;;;;;5064073;28;20025;-78
2020/12/09 00:41:16;;;;;;;44.50;13.75;;;5.00;99.90;;;;;;5065368;28;20025;-77
2020/12/09 00:43:43;;;;;;;25.35;12.73;;;5.00;99.90;;;;;;5065440;28;20051;-77
2020/12/09 00:46:13;;;;;;;32.30;12.98;;;5.00;99.90;;;;;;5065141;28;20544;-77
2020/12/09 00:48:38;;;;;;;38.35;16.30;;;5.00;99.90;;;;;;5063977;28;20044;-77
2020/12/09 00:51:04;;;;;;;32.03;13.50;;;4.90;99.90;;;;;;5063910;28;20021;-76
2020/12/09 00:53:29;;;;;;;26.70;12.95;;;4.90;99.90;;;;;;5063951;28;20020;-76
2020/12/09 00:55:55;;;;;;;30.60;12.23;;;4.90;99.90;;;;;;5063547;28;20368;-77
2020/12/09 00:58:21;;;;;;;27.48;12.68;;;4.90;99.90;;;;;;5063819;28;20025;-78
2020/12/09 01:00:46;;;;;;;28.73;12.18;;;4.80;99.90;;;;;;5064972;28;20032;-77
2020/12/09 01:03:12;;;;;;;31.30;12.45;;;4.90;99.90;;;;;;5063425;28;20049;-77
2020/12/09 01:05:38;;;;;;;29.65;11.48;;;4.90;99.90;;;;;;5065059;28;20036;-76
2020/12/09 01:08:03;;;;;;;37.13;12.27;;;4.90;99.90;;;;;;5064727;28;20077;-77
2020/12/09 01:10:29;;;;;;;32.05;14.32;;;4.90;99.90;;;;;;5064703;28;20037;-78
2020/12/09 01:12:55;;;;;;;28.83;12.93;;;4.90;99.90;;;;;;5063535;28;20043;-78
2020/12/09 01:15:21;;;;;;;34.50;12.23;;;4.90;99.90;;;;;;5063913;28;20029;-78
2020/12/09 01:17:46;;;;;;;30.05;10.48;;;4.80;99.90;;;;;;5063724;28;20025;-76
2020/12/09 01:20:12;;;;;;;35.20;12.15;;;4.70;99.90;;;;;;5063138;28;20031;-76
2020/12/09 01:22:38;;;;;;;38.08;14.32;;;4.60;99.90;;;;;;5064675;28;20031;-77
2020/12/09 01:25:03;;;;;;;28.20;12.38;;;4.50;99.90;;;;;;5064761;28;20051;-76
2020/12/09 01:27:29;;;;;;;37.38;12.68;;;4.50;99.90;;;;;;5064708;28;20109;-77
2020/12/09 01:29:55;;;;;;;34.95;14.02;;;4.50;99.90;;;;;;5063052;28;20040;-77
2020/12/09 01:32:21;;;;;;;31.83;11.80;;;4.40;99.90;;;;;;5063539;28;20070;-77
2020/12/09 01:34:46;;;;;;;36.50;13.07;;;4.40;99.90;;;;;;5064769;28;20052;-76
2020/12/09 01:37:12;;;;;;;37.92;13.52;;;4.40;99.90;;;;;;5064555;28;20032;-76
2020/12/09 01:39:39;;;;;;;30.58;11.93;;;4.30;99.90;;;;;;5064856;28;20017;-77
2020/12/09 01:42:04;;;;;;;29.48;12.13;;;4.30;99.90;;;;;;5062923;28;20045;-77
2020/12/09 01:44:30;;;;;;;24.70;10.90;;;4.40;99.90;;;;;;5064552;28;20029;-76
2020/12/09 01:46:56;;;;;;;25.42;12.43;;;4.30;99.90;;;;;;5064649;28;20024;-77
2020/12/09 01:49:22;;;;;;;25.52;10.82;;;4.20;99.90;;;;;;5063245;28;20033;-76
2020/12/09 01:51:49;;;;;;;23.00;11.77;;;4.30;99.90;;;;;;5063423;28;20025;-77
2020/12/09 01:54:14;;;;;;;23.02;10.52;;;4.30;99.90;;;;;;5062981;28;20047;-76
2020/12/09 01:56:40;;;;;;;28.55;12.13;;;4.30;99.90;;;;;;5063075;28;20029;-77
2020/12/09 01:59:05;;;;;;;21.40;12.13;;;4.30;99.90;;;;;;5063047;28;20025;-78
2020/12/09 02:01:32;;;;;;;31.90;12.18;;;4.30;99.90;;;;;;5063025;28;20017;-77
2020/12/09 02:03:58;;;;;;;35.60;12.52;;;4.30;99.90;;;;;;5064238;28;20045;-77
2020/12/09 02:06:23;;;;;;;27.50;10.57;;;4.30;99.90;;;;;;5064152;28;20350;-78
2020/12/09 02:08:49;;;;;;;29.73;10.32;;;4.30;99.90;;;;;;5063075;28;20028;-77
2020/12/09 02:11:14;;;;;;;32.88;12.45;;;4.30;99.90;;;;;;5064151;28;20017;-76
2020/12/09 02:13:47;;;;;;;25.73;11.38;;;4.30;99.90;;;;;;5064163;28;20025;-79
2020/12/09 02:16:13;;;;;;;18.85;10.73;;;4.30;99.90;;;;;;5064192;28;20049;-78
2020/12/09 02:18:40;;;;;;;25.92;11.38;;;4.20;99.90;;;;;;5064010;28;20032;-77
2020/12/09 02:21:06;;;;;;;26.20;11.48;;;4.20;99.90;;;;;;5062809;28;20021;-77
2020/12/09 02:23:32;;;;;;;30.40;11.80;;;4.20;99.90;;;;;;5067938;28;20024;-78
2020/12/09 02:25:57;;;;;;;27.08;12.20;;;4.20;99.90;;;;;;5067884;28;20028;-77
2020/12/09 02:28:23;;;;;;;25.35;10.95;;;4.10;99.90;;;;;;5067937;28;20096;-76
2020/12/09 02:30:49;;;;;;;29.85;12.38;;;4.10;99.90;;;;;;5067970;28;20041;-77
2020/12/09 02:33:15;;;;;;;32.20;13.00;;;4.10;99.90;;;;;;5067997;28;20048;-77
2020/12/09 02:35:40;;;;;;;29.80;11.07;;;4.10;99.90;;;;;;5067777;28;20036;-76
2020/12/09 02:38:06;;;;;;;21.45;10.85;;;4.10;99.90;;;;;;5066157;28;20025;-78
2020/12/09 02:40:31;;;;;;;31.02;11.38;;;4.10;99.90;;;;;;5067685;28;20047;-77
2020/12/09 02:42:57;;;;;;;30.05;12.48;;;4.10;99.90;;;;;;5067778;28;20108;-78
2020/12/09 02:45:25;;;;;;;29.63;13.55;;;4.10;99.90;;;;;;5067686;28;20104;-79
2020/12/09 02:47:51;;;;;;;27.45;11.63;;;4.10;99.90;;;;;;5066244;28;20051;-78
2020/12/09 02:50:16;;;;;;;30.45;13.00;;;4.10;99.90;;;;;;5067333;28;20041;-77
2020/12/09 02:52:42;;;;;;;30.33;13.70;;;4.20;99.90;;;;;;5066200;28;20025;-76
2020/12/09 02:55:07;;;;;;;32.80;12.90;;;4.20;99.90;;;;;;5065771;28;20111;-77
2020/12/09 02:57:33;;;;;;;30.15;13.68;;;4.20;99.90;;;;;;5067064;28;20048;-77
2020/12/09 02:59:58;;;;;;;36.47;12.50;;;4.20;99.90;;;;;;5067348;28;20077;-78
2020/12/09 03:02:24;;;;;;;28.52;12.48;;;4.20;99.90;;;;;;5065887;28;20088;-77
2020/12/09 03:04:49;;;;;;;31.55;12.50;;;4.20;99.90;;;;;;5067222;28;20044;-76
2020/12/09 03:07:15;;;;;;;33.85;14.35;;;4.20;99.90;;;;;;5065940;28;20032;-76
2020/12/09 03:09:40;;;;;;;23.60;13.15;;;4.10;99.90;;;;;;5066878;28;20033;-77
2020/12/09 03:12:06;;;;;;;35.97;13.57;;;4.10;99.90;;;;;;5065650;28;20025;-78
2020/12/09 03:14:32;;;;;;;31.25;13.25;;;4.10;99.90;;;;;;5066113;28;20073;-77
2020/12/09 03:16:57;;;;;;;28.60;13.45;;;4.10;99.90;;;;;;5065670;28;20013;-78
2020/12/09 03:19:23;;;;;;;30.02;13.13;;;4.10;99.90;;;;;;5066975;28;20080;-78
2020/12/09 03:21:48;;;;;;;29.77;13.50;;;4.00;99.90;;;;;;5065776;28;20067;-76
2020/12/09 03:24:14;;;;;;;39.90;12.90;;;4.00;99.90;;;;;;5065903;28;20449;-78
2020/12/09 03:26:39;;;;;;;31.67;13.13;;;4.00;99.90;;;;;;5065736;28;20021;-78
2020/12/09 03:29:05;;;;;;;36.08;13.57;;;4.00;99.90;;;;;;5065466;28;20065;-78
2020/12/09 03:31:31;;;;;;;26.95;12.05;;;4.00;99.90;;;;;;5065450;28;20339;-77
2020/12/09 03:33:57;;;;;;;34.03;13.32;;;4.00;99.90;;;;;;5064350;28;20025;-77
2020/12/09 03:36:22;;;;;;;37.03;14.73;;;4.00;99.90;;;;;;5066802;28;20032;-78
2020/12/09 03:38:48;;;;;;;30.65;12.52;;;4.10;99.90;;;;;;5065609;28;20009;-77
2020/12/09 03:41:14;;;;;;;28.00;12.02;;;4.00;99.90;;;;;;5065250;28;20021;-77
2020/12/09 03:43:39;;;;;;;32.20;11.73;;;4.10;99.90;;;;;;5065158;28;20044;-78
2020/12/09 03:46:05;;;;;;;32.17;13.75;;;4.10;99.90;;;;;;5066455;28;20043;-77
2020/12/09 03:48:30;;;;;;;28.13;12.68;;;4.00;99.90;;;;;;5066670;28;20021;-77
2020/12/09 03:50:56;;;;;;;31.05;13.02;;;4.00;99.90;;;;;;5066542;28;20040;-78
2020/12/09 03:53:22;;;;;;;34.42;13.98;;;4.00;99.90;;;;;;5065214;28;20346;-78
2020/12/09 03:55:48;;;;;;;25.45;12.95;;;4.00;99.90;;;;;;5066365;28;20051;-77
2020/12/09 03:58:15;;;;;;;28.48;12.80;;;4.10;99.90;;;;;;5066182;28;20036;-77
2020/12/09 04:00:41;;;;;;;40.17;13.38;;;4.00;99.90;;;;;;5066196;28;20076;-77
2020/12/09 04:03:07;;;;;;;30.02;12.85;;;4.10;99.90;;;;;;5066020;28;20060;-77
2020/12/09 04:05:32;;;;;;;35.38;13.95;;;4.10;99.90;;;;;;5064778;28;20020;-78
2020/12/09 04:07:58;;;;;;;28.05;12.95;;;4.10;99.90;;;;;;5065859;28;20025;-78
2020/12/09 04:10:24;;;;;;;36.60;13.57;;;4.00;99.90;;;;;;5065812;28;20037;-78
2020/12/09 04:12:49;;;;;;;30.15;11.88;;;4.00;99.90;;;;;;5065020;28;20024;-76
2020/12/09 04:15:15;;;;;;;26.73;12.43;;;4.00;99.90;;;;;;5066137;28;20017;-77
2020/12/09 04:17:41;;;;;;;30.92;14.07;;;3.90;99.90;;;;;;5065767;28;20092;-78
2020/12/09 04:20:08;;;;;;;36.70;14.05;;;3.90;99.90;;;;;;5064505;28;20025;-77
2020/12/09 04:22:34;;;;;;;30.65;12.60;;;3.90;99.90;;;;;;5064585;28;20141;-77
2020/12/09 04:24:59;;;;;;;35.35;13.68;;;3.80;99.90;;;;;;5065792;28;20029;-78
2020/12/09 04:27:25;;;;;;;47.47;13.18;;;3.80;99.90;;;;;;5064256;28;20159;-79
2020/12/09 04:29:52;;;;;;;36.00;13.48;;;3.80;99.90;;;;;;5064243;28;20025;-77
2020/12/09 04:32:18;;;;;;;33.20;13.32;;;3.80;99.90;;;;;;5065775;28;20104;-77
2020/12/09 04:34:44;;;;;;;31.20;12.73;;;3.80;99.90;;;;;;5064050;28;20024;-77
2020/12/09 04:37:10;;;;;;;38.75;13.02;;;3.70;99.90;;;;;;5064225;28;20028;-76
2020/12/09 04:39:36;;;;;;;28.85;14.10;;;3.70;99.90;;;;;;5063906;28;20017;-77
2020/12/09 04:42:02;;;;;;;28.83;13.55;;;3.70;99.90;;;;;;5065152;28;20024;-77
2020/12/09 04:44:28;;;;;;;40.03;13.82;;;3.70;99.90;;;;;;5063852;28;20035;-77
2020/12/09 04:46:53;;;;;;;26.35;10.82;;;3.60;99.90;;;;;;5063945;28;20084;-78
2020/12/09 04:49:23;;;;;;;36.47;12.90;;;3.70;99.90;;;;;;5064214;28;20079;-78
2020/12/09 04:52:23;;;;;;;46.88;14.35;;;3.70;99.90;;;;;;5064104;28;20037;-76
2020/12/09 04:54:52;;;;;;;32.97;12.32;;;3.70;99.90;;;;;;5063975;28;20055;-77
2020/12/09 04:57:36;;;;;;;36.03;14.27;;;3.80;99.90;;;;;;5063813;28;20094;-78
2020/12/09 05:00:09;;;;;;;;;;;3.90;99.90;;;;;;5064145;28;20027;-78
2020/12/09 05:02:40;;;;;;;30.98;13.05;;;3.80;99.90;;;;;;5064843;28;19901;-78
2020/12/09 05:05:06;;;;;;;20.33;10.73;;;3.80;99.90;;;;;;5064925;28;20139;-77
2020/12/09 05:07:36;;;;;;;37.20;11.52;;;3.80;99.90;;;;;;5064985;28;20402;-78
2020/12/09 05:10:06;;;;;;;33.17;11.88;;;3.80;99.90;;;;;;5064597;28;20040;-78
2020/12/09 05:12:44;;;;;;;33.90;12.73;;;3.80;99.90;;;;;;5063783;28;20021;-78
2020/12/09 05:15:15;;;;;;;49.03;14.52;;;3.90;99.90;;;;;;5064801;28;20082;-78
2020/12/09 05:17:54;;;;;;;40.33;12.27;;;3.90;99.90;;;;;;5064915;28;20378;-78
2020/12/09 05:20:34;;;;;;;24.45;11.27;;;3.90;99.90;;;;;;5064829;28;20051;-78
2020/12/09 05:23:00;;;;;;;40.15;13.32;;;3.90;99.90;;;;;;5064727;28;20031;-78
2020/12/09 05:25:27;;;;;;;35.03;11.50;;;3.90;99.90;;;;;;5063459;28;20098;-78
2020/12/09 05:27:54;;;;;;;32.28;12.05;;;3.90;99.90;;;;;;5063204;28;20377;-79
2020/12/09 05:30:43;;;;;;;39.47;13.07;;;3.90;99.90;;;;;;5063495;28;20037;-77
2020/12/09 05:33:13;;;;;;;30.90;12.00;;;3.90;99.90;;;;;;5064399;28;20108;-78
2020/12/09 05:35:41;;;;;;;32.53;12.43;;;3.80;99.90;;;;;;5063315;28;20027;-77
2020/12/09 05:38:18;;;;;;;26.85;11.73;;;3.90;99.90;;;;;;5063130;28;20063;-77
2020/12/09 05:40:45;;;;;;;36.53;12.75;;;3.80;99.90;;;;;;5063251;28;20029;-77
2020/12/09 05:43:12;;;;;;;30.65;12.15;;;3.70;99.90;;;;;;5062924;28;20052;-77
2020/12/09 05:45:39;;;;;;;32.00;11.02;;;3.80;99.90;;;;;;5063084;28;20025;-78
2020/12/09 05:48:22;;;;;;;23.52;10.88;;;3.80;99.90;;;;;;5062975;28;20179;-77
2020/12/09 05:50:58;;;;;;;31.70;10.27;;;3.80;99.90;;;;;;5064486;28;20031;-78
2020/12/09 05:53:25;;;;;;;33.05;12.35;;;3.80;99.90;;;;;;5064313;28;20052;-78
2020/12/09 05:55:54;;;;;;;31.25;11.82;;;3.90;99.90;;;;;;5062909;28;20369;-78
2020/12/09 05:58:26;;;;;;;25.92;10.10;;;3.90;99.90;;;;;;5068081;28;20116;-77
2020/12/09 06:01:15;;;;;;;34.10;10.90;;;3.90;99.90;;;;;;5068537;28;20028;-78
2020/12/09 06:03:46;;;;;;;30.85;12.88;;;3.90;99.90;;;;;;5066868;28;20060;-77
2020/12/09 06:06:17;;;;;;;32.78;11.50;;;3.90;99.90;;;;;;5068208;28;20021;-77
2020/12/09 06:08:54;;;;;;;23.92;10.70;;;3.90;99.90;;;;;;5068190;28;20047;-78
2020/12/09 06:11:25;;;;;;;20.63;8.57;;;3.90;99.90;;;;;;5066791;28;20033;-77
2020/12/09 06:13:52;;;;;;;28.15;11.65;;;3.90;99.90;;;;;;5068203;28;20021;-78
2020/12/09 06:16:18;;;;;;;34.92;10.63;;;3.90;99.90;;;;;;5066968;28;20116;-77
2020/12/09 06:18:55;;;;;;;28.20;10.20;;;3.90;99.90;;;;;;5066840;28;20047;-77
2020/12/09 06:21:25;;;;;;;22.05;10.57;;;3.90;99.90;;;;;;5068293;28;20032;-78
2020/12/09 06:23:54;;;;;;;30.35;11.25;;;3.90;99.90;;;;;;5067050;28;20029;-77
2020/12/09 06:26:20;;;;;;;27.52;11.73;;;3.90;99.90;;;;;;5067037;28;20029;-78
2020/12/09 06:28:49;;;;;;;40.75;10.80;;;3.90;99.90;;;;;;5067765;28;20032;-78
2020/12/09 06:31:19;;;;;;;28.15;12.57;;;3.90;99.90;;;;;;5066686;28;20031;-78
2020/12/09 06:33:53;;;;;;;32.83;12.57;;;3.90;99.90;;;;;;5066459;28;20093;-77
2020/12/09 06:36:25;;;;;;;26.35;11.40;;;3.90;99.90;;;;;;5066650;28;20025;-78
2020/12/09 06:39:08;;;;;;;34.45;12.80;;;3.80;99.90;;;;;;5067702;28;20108;-76
2020/12/09 06:41:35;;;;;;;30.38;10.32;;;3.90;99.90;;;;;;5066184;28;20035;-77
2020/12/09 06:44:28;;;;;;;28.75;12.35;;;3.80;99.90;;;;;;5066190;28;20025;-77
2020/12/09 06:46:55;;;;;;;28.80;12.40;;;3.90;99.90;;;;;;5066109;28;20067;-78
2020/12/09 06:49:29;;;;;;;32.38;11.88;;;3.90;99.90;;;;;;5066281;28;20064;-75
2020/12/09 06:52:00;;;;;;;35.47;13.85;;;3.90;99.90;;;;;;5067254;28;20025;-76
2020/12/09 06:54:46;;;;;;;36.03;12.13;;;3.90;99.90;;;;;;5067322;28;20071;-76
2020/12/09 06:57:17;;;;;;;26.05;10.55;;;3.80;99.90;;;;;;5067281;28;20096;-76
2020/12/09 06:59:44;;;;;;;36.95;13.27;;;3.90;99.90;;;;;;5067461;28;20021;-76
2020/12/09 07:02:23;;;;;;;35.72;12.50;;;3.90;99.90;;;;;;5065775;28;20033;-76
2020/12/09 07:04:58;;;;;;;34.58;11.65;;;3.90;99.90;;;;;;5065799;28;20094;-75
2020/12/09 07:07:27;;;;;;;28.08;11.60;;;3.90;99.90;;;;;;5067088;28;20025;-76
2020/12/09 07:09:56;;;;;;;31.67;12.30;;;3.90;99.90;;;;;;5065686;28;20095;-76
2020/12/09 07:12:24;;;;;;;41.75;13.43;;;3.90;99.90;;;;;;5065862;28;20105;-76
2020/12/09 07:14:56;;;;;;;43.28;14.07;;;4.00;99.90;;;;;;5067481;28;20021;-76
2020/12/09 07:17:25;;;;;;;29.95;12.82;;;4.00;99.90;;;;;;5067019;28;20037;-76
2020/12/09 07:19:53;;;;;;;38.10;12.48;;;4.00;99.90;;;;;;5067082;28;20021;-75
2020/12/09 07:22:18;;;;;;;30.63;13.45;;;4.00;99.90;;;;;;5066910;28;20048;-75
2020/12/09 07:24:45;;;;;;;39.13;14.05;;;4.00;99.90;;;;;;5066861;28;20025;-76
2020/12/09 07:27:12;;;;;;;25.40;12.07;;;4.00;99.90;;;;;;5065196;28;20421;-76
2020/12/09 07:29:42;;;;;;;35.85;12.50;;;4.00;99.90;;;;;;5066688;28;20036;-76
2020/12/09 07:32:08;;;;;;;27.05;12.27;;;4.00;99.90;;;;;;5066761;28;20085;-76
2020/12/09 07:34:47;;;;;;;36.22;14.27;;;4.00;99.90;;;;;;5066396;28;20028;-77
2020/12/09 07:37:15;;;;;;;36.78;11.70;;;4.00;99.90;;;;;;5065246;28;20088;-76
2020/12/09 07:39:40;;;;;;;28.38;11.95;;;4.00;99.90;;;;;;5064928;28;20020;-77
2020/12/09 07:42:06;;;;;;;38.63;13.63;;;4.00;99.90;;;;;;5066183;28;20131;-77
2020/12/09 07:44:41;;;;;;;37.20;13.45;;;4.00;99.90;;;;;;5065220;28;20413;-77
2020/12/09 07:47:07;;;;;;;46.67;13.38;;;4.00;99.90;;;;;;5066708;28;20375;-76
2020/12/09 07:49:32;;;;;;;49.67;15.00;;;4.10;99.90;;;;;;5066375;28;20037;-77
2020/12/09 07:51:58;;;;;;;39.50;13.57;;;4.10;99.90;;;;;;5065584;28;20031;-76
2020/12/09 07:54:24;;;;;;;36.92;11.48;;;4.10;99.90;;;;;;5064942;28;20021;-77
2020/12/09 07:56:51;;;;;;;27.63;11.98;;;4.10;99.90;;;;;;5064834;28;20124;-76
2020/12/09 07:59:17;;;;;;;36.60;12.98;;;4.10;99.90;;;;;;5066133;28;20044;-77
2020/12/09 08:01:43;;;;;;;48.70;14.05;;;4.10;99.90;;;;;;5065897;28;20021;-76
2020/12/09 08:04:09;;;;;;;46.47;14.20;;;4.20;99.90;;;;;;5065749;28;20060;-76
2020/12/09 08:06:36;;;;;;;33.65;13.23;;;4.10;99.90;;;;;;5064567;28;20013;-78
2020/12/09 08:09:17;;;;;;;38.42;13.38;;;4.10;99.90;;;;;;5066204;28;20043;-77
2020/12/09 08:11:44;;;;;;;35.15;14.88;;;4.10;99.90;;;;;;5065923;28;20021;-76
2020/12/09 08:14:11;;;;;;;35.85;14.73;;;4.10;99.90;;;;;;5064148;28;20039;-76
2020/12/09 08:16:38;;;;;;;44.58;14.35;;;4.20;99.90;;;;;;5064458;28;20495;-77
2020/12/09 08:19:10;;;;;;;38.33;13.70;;;4.20;99.90;;;;;;5063451;28;20037;-76
2020/12/09 08:21:38;;;;;;;40.10;12.65;;;4.30;99.90;;;;;;5064345;28;20104;-77
2020/12/09 08:24:11;;;;;;;34.75;14.10;;;4.30;99.90;;;;;;5065528;28;20037;-75
2020/12/09 08:26:37;;;;;;;39.08;14.38;;;4.30;99.90;;;;;;5064187;28;20021;-75
2020/12/09 08:29:04;;;;;;;42.78;13.07;;;4.40;99.90;;;;;;5063938;28;20025;-75
2020/12/09 08:31:29;;;;;;;36.75;14.20;;;4.40;99.90;;;;;;5063966;28;20399;-76
2020/12/09 08:33:56;;;;;;;46.50;14.57;;;4.50;99.90;;;;;;5065332;28;20021;-77
2020/12/09 08:36:22;;;;;;;34.75;13.43;;;4.40;99.90;;;;;;5065557;28;20021;-77
2020/12/09 08:38:49;;;;;;;32.40;12.10;;;4.50;99.90;;;;;;5063883;28;20040;-76
2020/12/09 08:41:23;;;;;;;35.83;13.73;;;4.50;99.90;;;;;;5063785;28;20013;-75
2020/12/09 08:43:49;;;;;;;55.40;15.45;;;4.50;99.90;;;;;;5065317;28;20021;-77
2020/12/09 08:46:15;;;;;;;39.05;13.23;;;4.40;99.90;;;;;;5065135;28;20029;-77
2020/12/09 08:48:41;;;;;;;36.97;15.40;;;4.50;99.90;;;;;;5065134;28;20017;-76
2020/12/09 08:51:07;;;;;;;40.20;15.02;;;4.50;99.90;;;;;;5064892;28;20029;-76
2020/12/09 08:53:34;;;;;;;36.47;12.90;;;4.50;99.90;;;;;;5063432;28;20462;-76
2020/12/09 08:55:59;;;;;;;37.80;12.18;;;4.50;99.90;;;;;;5063123;28;20083;-76
2020/12/09 08:58:25;;;;;;;30.90;11.73;;;4.50;99.90;;;;;;5062948;28;20021;-77
2020/12/09 09:00:52;;;;;;;42.72;16.23;;;4.50;99.90;;;;;;5063219;28;20071;-77
2020/12/09 09:03:20;;;;;;;40.97;13.40;;;4.50;99.90;;;;;;5063158;28;20055;-76
2020/12/09 09:05:51;;;;;;;33.58;13.57;;;4.50;99.90;;;;;;5062989;28;20115;-77
2020/12/09 09:08:17;;;;;;;39.78;13.32;;;4.60;99.90;;;;;;5064694;28;20029;-76
2020/12/09 09:10:43;;;;;;;39.10;14.82;;;4.60;99.90;;;;;;5062649;28;20083;-76
2020/12/09 09:13:09;;;;;;;39.33;14.00;;;4.60;99.90;;;;;;5062989;28;20025;-76
2020/12/09 09:15:35;;;;;;;37.83;13.73;;;4.60;99.90;;;;;;5064174;28;20025;-76
2020/12/09 09:18:02;;;;;;;43.85;13.85;;;4.60;99.90;;;;;;5063927;28;20028;-75
2020/12/09 09:20:28;;;;;;;44.38;13.65;;;4.80;99.90;;;;;;5063965;28;20493;-76
2020/12/09 09:22:54;;;;;;;40.30;12.88;;;4.70;99.90;;;;;;5062769;28;20024;-77
2020/12/09 09:25:20;;;;;;;32.17;12.48;;;4.70;99.90;;;;;;5063972;28;20466;-76
2020/12/09 09:27:50;;;;;;;43.80;13.10;;;4.70;99.90;;;;;;5064166;28;20025;-77
2020/12/09 09:30:17;;;;;;;36.78;12.48;;;4.70;99.90;;;;;;5062707;28;20579;-76
2020/12/09 09:32:43;;;;;;;31.60;13.25;;;4.70;99.90;;;;;;5063517;28;20021;-77
2020/12/09 09:35:09;;;;;;;40.42;12.35;;;4.70;99.90;;;;;;5062970;28;20458;-76
2020/12/09 09:37:34;;;;;;;41.55;13.10;;;4.70;99.90;;;;;;5064468;28;20025;-76
2020/12/09 09:40:00;;;;;;;45.92;12.88;;;4.70;99.90;;;;;;5064315;28;20013;-78
2020/12/09 09:42:26;;;;;;;37.58;12.85;;;4.70;99.90;;;;;;5063299;28;20017;-76
2020/12/09 09:44:53;;;;;;;38.47;13.23;;;4.80;99.90;;;;;;5063306;28;20523;-75
2020/12/09 09:47:19;;;;;;;37.53;13.70;;;4.80;99.90;;;;;;5063179;28;20049;-75
2020/12/09 09:49:45;;;;;;;47.42;13.90;;;4.80;99.90;;;;;;5062563;28;20040;-76
2020/12/09 09:52:11;;;;;;;33.47;11.85;;;4.90;99.90;;;;;;5064077;28;20025;-76
2020/12/09 09:54:37;;;;;;;31.98;11.77;;;4.90;99.90;;;;;;5063039;28;20025;-76
2020/12/09 09:57:04;;;;;;;30.63;11.18;;;4.90;99.90;;;;;;5064230;28;20032;-77
2020/12/09 09:59:30;;;;;;;25.00;11.48;;;4.90;99.90;;;;;;5062590;28;20092;-78
2020/12/09 10:01:56;;;;;;;30.80;12.32;;;5.00;99.90;;;;;;5079453;28;20063;-78
2020/12/09 10:04:24;;;;;;;33.92;11.40;;;5.00;99.90;;;;;;5062342;28;20045;-78
2020/12/09 10:06:52;;;;;;;33.80;13.00;;;5.10;99.90;;;;;;5063975;28;20055;-78
2020/12/09 10:09:18;;;;;;;44.10;14.18;;;5.00;99.90;;;;;;5063946;28;20032;-78
2020/12/09 10:11:45;;;;;;;33.42;12.57;;;5.10;99.90;;;;;;5062469;28;20460;-77
2020/12/09 10:14:11;;;;;;;30.20;12.52;;;5.10;99.90;;;;;;5062512;28;20036;-76
2020/12/09 10:16:40;;;;;;;46.13;14.93;;;5.00;99.90;;;;;;5064099;28;20028;-75
2020/12/09 10:19:05;;;;;;;36.03;13.80;;;5.00;99.90;;;;;;5062700;28;20025;-75
2020/12/09 10:21:33;;;;;;;47.05;14.60;;;5.00;99.90;;;;;;5063781;28;20051;-76
2020/12/09 10:24:00;;;;;;;32.35;13.18;;;5.00;99.90;;;;;;5062520;28;20025;-76
2020/12/09 10:26:37;;;;;;;37.63;14.07;;;5.00;99.90;;;;;;5062506;28;20436;-77
2020/12/09 10:29:08;;;;;;;37.53;12.30;;;5.00;99.90;;;;;;5063774;28;20024;-76
2020/12/09 10:31:40;;;;;;;32.67;12.80;;;5.00;99.90;;;;;;5062398;28;20032;-76
2020/12/09 10:34:08;;;;;;;32.83;12.70;;;5.00;99.90;;;;;;5063643;28;20029;-75
2020/12/09 10:36:34;;;;;;;39.28;14.32;;;5.00;99.90;;;;;;5063772;28;20017;-76
2020/12/09 10:39:00;;;;;;;33.65;12.10;;;4.90;99.90;;;;;;5063642;28;20040;-77
2020/12/09 10:41:27;;;;;;;36.13;14.40;;;4.90;99.90;;;;;;5064052;28;20072;-78
2020/12/09 10:43:55;;;;;;;37.95;13.48;;;4.90;99.90;;;;;;5066670;28;20029;-76
2020/12/09 10:46:30;;;;;;;49.92;12.75;;;4.90;99.90;;;;;;5066293;28;20029;-76
2020/12/09 10:48:55;;;;;;;;;;;4.90;99.90;;;;;;5068161;28;20032;-78
2020/12/09 10:51:21;;;;;;;31.40;11.65;;;4.90;99.90;;;;;;5066177;28;19901;-76
2020/12/09 10:53:46;;;;;;;28.48;11.43;;;4.90;99.90;;;;;;5066178;28;20047;-76
2020/12/09 10:56:12;;;;;;;35.88;12.40;;;4.80;99.90;;;;;;5065935;28;20024;-76
2020/12/09 10:58:38;;;;;;;47.13;14.13;;;4.80;99.90;;;;;;5065702;28;20021;-75
2020/12/09 11:01:03;;;;;;;40.72;13.48;;;4.80;99.90;;;;;;5066165;28;20021;-76
2020/12/09 11:03:29;;;;;;;36.95;15.23;;;4.80;99.90;;;;;;5065697;28;20615;-76
2020/12/09 11:05:57;;;;;;;28.95;11.77;;;4.90;99.90;;;;;;5067154;28;20021;-78
2020/12/09 11:08:27;;;;;;;29.77;11.60;;;4.90;99.90;;;;;;5066132;28;20358;-76
2020/12/09 11:10:53;;;;;;;34.90;13.10;;;4.90;99.90;;;;;;5067263;28;20040;-77
2020/12/09 11:13:18;;;;;;;33.80;12.10;;;4.90;99.90;;;;;;5065875;28;20021;-76
2020/12/09 11:15:44;;;;;;;37.47;13.30;;;4.80;99.90;;;;;;5067200;28;20029;-76
2020/12/09 11:18:09;;;;;;;45.28;13.50;;;4.80;99.90;;;;;;5067312;28;20082;-77
2020/12/09 11:20:37;;;;;;;39.03;13.77;;;4.80;99.90;;;;;;5066627;28;20028;-77
2020/12/09 11:23:03;;;;;;;41.42;13.02;;;4.80;99.90;;;;;;5065728;28;20047;-76
2020/12/09 11:25:29;;;;;;;41.25;13.18;;;4.80;99.90;;;;;;5065595;28;20021;-76
2020/12/09 11:27:55;;;;;;;41.72;12.63;;;4.80;99.90;;;;;;5066712;28;20017;-77
2020/12/09 11:30:24;;;;;;;35.88;13.60;;;4.80;99.90;;;;;;5065619;28;20037;-76
2020/12/09 11:32:57;;;;;;;43.03;11.75;;;4.80;99.90;;;;;;5067058;28;20044;-76
2020/12/09 11:35:24;;;;;;;33.45;14.02;;;4.80;99.90;;;;;;5065472;28;20025;-77
2020/12/09 11:37:49;;;;;;;35.85;12.80;;;4.80;99.90;;;;;;5064002;28;20024;-76
2020/12/09 11:40:15;;;;;;;34.15;14.02;;;4.80;99.90;;;;;;5065713;28;20021;-75
2020/12/09 11:42:40;;;;;;;28.15;12.20;;;4.80;99.90;;;;;;5066305;28;20462;-76
2020/12/09 11:45:06;;;;;;;33.67;12.85;;;4.90;99.90;;;;;;5064724;28;20017;-75
2020/12/09 11:47:34;;;;;;;37.95;12.65;;;4.90;99.90;;;;;;5066367;28;20021;-75
2020/12/09 11:50:00;;;;;;;30.75;12.52;;;4.90;99.90;;;;;;5064979;28;20473;-77
2020/12/09 11:52:26;;;;;;;27.30;11.73;;;4.90;99.90;;;;;;5065127;28;20080;-76
2020/12/09 11:54:52;;;;;;;32.03;11.40;;;4.90;99.90;;;;;;5065568;28;20051;-76
2020/12/09 11:57:17;;;;;;;28.48;12.57;;;4.90;99.90;;;;;;5066457;28;20044;-78
2020/12/09 11:59:43;;;;;;;33.00;11.98;;;5.00;99.90;;;;;;5066228;28;20107;-74
2020/12/09 12:02:08;;;;;;;42.33;13.43;;;4.90;99.90;;;;;;5066175;28;20056;-75
2020/12/09 12:04:34;;;;;;;37.63;13.63;;;4.90;99.90;;;;;;5064374;28;20041;-76
2020/12/09 12:07:00;;;;;;;36.22;12.43;;;4.90;99.90;;;;;;5064691;28;20029;-76
2020/12/09 12:09:25;;;;;;;42.40;12.98;;;5.00;99.90;;;;;;5064528;28;20047;-75
2020/12/09 12:11:51;;;;;;;37.30;12.68;;;4.90;99.90;;;;;;5064586;28;20032;-75
2020/12/09 12:14:17;;;;;;;36.83;12.18;;;4.90;99.90;;;;;;5065859;28;20080;-75
2020/12/09 12:16:44;;;;;;;27.00;13.13;;;4.90;99.90;;;;;;5065843;28;20085;-76
2020/12/09 12:19:12;;;;;;;31.83;10.98;;;4.90;99.90;;;;;;5064702;28;20049;-76
2020/12/09 12:21:38;;;;;;;36.17;13.02;;;4.90;99.90;;;;;;5066077;28;20029;-76
2020/12/09 12:24:05;;;;;;;35.70;12.98;;;4.90;99.90;;;;;;5065485;28;20029;-75
2020/12/09 12:26:30;;;;;;;32.40;11.60;;;4.80;99.90;;;;;;5065517;28;20013;-75
2020/12/09 12:28:56;;;;;;;35.80;14.13;;;4.80;99.90;;;;;;5064962;28;20076;-74
2020/12/09 12:31:22;;;;;;;38.42;14.38;;;4.90;99.90;;;;;;5062505;28;20029;-74
2020/12/09 12:33:48;;;;;;;30.38;11.52;;;4.80;99.90;;;;;;5063810;28;20021;-74
2020/12/09 12:36:13;;;;;;;35.42;12.93;;;4.80;99.90;;;;;;5063792;28;20029;-74
2020/12/09 12:38:40;;;;;;;30.75;12.57;;;4.80;99.90;;;;;;5064772;28;20080;-75
2020/12/09 12:41:06;;;;;;;41.95;14.30;;;4.80;99.90;;;;;;5063424;28;20515;-75